SWN25Q CYYT-CYYR
Flight info
| Callsign | SWN25Q |
|---|---|
| Flight time | N/A |
| Altitude | 36000 |
| Route | YQX DCT YAY DCT YYR |
| Aircraft | B738/M-SDE2E3FGHIRWXY/LB1 |
Departure
| Time | N/A |
|---|---|
| Airport | St. John's International Airport (CYYT) |
Arrival
| Time | 2026-05-06 14:19 |
|---|---|
| Airport | Goose Bay Airport (CYYR) |
| Time | Latitude | Longitude | Altitude | Speed | Heading |
|---|---|---|---|---|---|
| 2026-05-06 14:08 | 53.23627 | -59.80533 | 6309 ft | 237 kts | 300° |
| 2026-05-06 14:08 | 53.24635 | -59.82714 | 6054 ft | 237 kts | 300° |
| 2026-05-06 14:09 | 53.25637 | -59.84894 | 5773 ft | 235 kts | 300° |
| 2026-05-06 14:09 | 53.26628 | -59.87051 | 5541 ft | 234 kts | 300° |
| 2026-05-06 14:09 | 53.27624 | -59.89210 | 5245 ft | 234 kts | 300° |
| 2026-05-06 14:09 | 53.28555 | -59.91243 | 5039 ft | 225 kts | 300° |
| 2026-05-06 14:10 | 53.29487 | -59.93282 | 4769 ft | 215 kts | 300° |
| 2026-05-06 14:10 | 53.30370 | -59.95220 | 4556 ft | 204 kts | 301° |
| 2026-05-06 14:10 | 53.31214 | -59.97065 | 4418 ft | 197 kts | 301° |
| 2026-05-06 14:10 | 53.32045 | -59.98891 | 4319 ft | 197 kts | 301° |
| 2026-05-06 14:11 | 53.32877 | -60.00718 | 4236 ft | 197 kts | 301° |
| 2026-05-06 14:11 | 53.33710 | -60.02548 | 4137 ft | 197 kts | 301° |
| 2026-05-06 14:11 | 53.34530 | -60.04347 | 4075 ft | 197 kts | 301° |
| 2026-05-06 14:11 | 53.35385 | -60.06146 | 3950 ft | 201 kts | 308° |
| 2026-05-06 14:12 | 53.36549 | -60.07536 | 3812 ft | 208 kts | 321° |
| 2026-05-06 14:12 | 53.37759 | -60.08873 | 3645 ft | 210 kts | 319° |
| 2026-05-06 14:12 | 53.38972 | -60.10247 | 3489 ft | 209 kts | 319° |
| 2026-05-06 14:12 | 53.40149 | -60.11582 | 3306 ft | 198 kts | 319° |
| 2026-05-06 14:13 | 53.41243 | -60.12831 | 3149 ft | 183 kts | 317° |
| 2026-05-06 14:13 | 53.41948 | -60.14380 | 3006 ft | 157 kts | 279° |
| 2026-05-06 14:13 | 53.41975 | -60.16125 | 2916 ft | 148 kts | 255° |
| 2026-05-06 14:13 | 53.41537 | -60.17622 | 2813 ft | 141 kts | 236° |
| 2026-05-06 14:14 | 53.40999 | -60.18978 | 2690 ft | 140 kts | 236° |
| 2026-05-06 14:14 | 53.40453 | -60.20343 | 2601 ft | 142 kts | 236° |
| 2026-05-06 14:14 | 53.39892 | -60.21730 | 2488 ft | 144 kts | 236° |
| 2026-05-06 14:14 | 53.39334 | -60.23099 | 2398 ft | 142 kts | 235° |
| 2026-05-06 14:15 | 53.38788 | -60.24432 | 2274 ft | 139 kts | 236° |
| 2026-05-06 14:15 | 53.38236 | -60.25779 | 2173 ft | 141 kts | 236° |
| 2026-05-06 14:15 | 53.37673 | -60.27150 | 2060 ft | 144 kts | 236° |
| 2026-05-06 14:15 | 53.37109 | -60.28531 | 1916 ft | 145 kts | 237° |
| 2026-05-06 14:16 | 53.36550 | -60.29908 | 1715 ft | 138 kts | 236° |
| 2026-05-06 14:16 | 53.36032 | -60.31220 | 1517 ft | 132 kts | 234° |
| 2026-05-06 14:16 | 53.35514 | -60.32446 | 1335 ft | 126 kts | 235° |
| 2026-05-06 14:16 | 53.35018 | -60.33655 | 1202 ft | 129 kts | 237° |
| 2026-05-06 14:17 | 53.34499 | -60.34908 | 1045 ft | 131 kts | 235° |
| 2026-05-06 14:17 | 53.33998 | -60.36109 | 854 ft | 125 kts | 236° |
| 2026-05-06 14:17 | 53.33505 | -60.37319 | 693 ft | 127 kts | 234° |
| 2026-05-06 14:17 | 53.32979 | -60.38589 | 576 ft | 134 kts | 233° |
| 2026-05-06 14:18 | 53.32443 | -60.39868 | 324 ft | 133 kts | 235° |
| 2026-05-06 14:18 | 53.31915 | -60.41108 | 167 ft | 129 kts | 239° |
| 2026-05-06 14:18 | 53.31440 | -60.42279 | 159 ft | 109 kts | 235° |
| 2026-05-06 14:18 | 53.31097 | -60.43100 | 155 ft | 62 kts | 236° |
| 2026-05-06 14:19 | 53.30922 | -60.43519 | 153 ft | 19 kts | 233° |
| 2026-05-06 14:19 | 53.30823 | -60.43571 | 156 ft | 16 kts | 149° |
| 2026-05-06 14:19 | 53.30752 | -60.43465 | 159 ft | 12 kts | 98° |
| 2026-05-06 14:19 | 53.30793 | -60.43331 | 156 ft | 15 kts | 56° |
| 2026-05-06 14:20 | 53.30851 | -60.43189 | 156 ft | 15 kts | 56° |
| 2026-05-06 14:20 | 53.30909 | -60.43048 | 154 ft | 15 kts | 56° |
| 2026-05-06 14:20 | 53.30967 | -60.42905 | 157 ft | 15 kts | 56° |
| 2026-05-06 14:20 | 53.31026 | -60.42771 | 158 ft | 14 kts | 47° |
| 2026-05-06 14:21 | 53.31085 | -60.42649 | 160 ft | 13 kts | 56° |
| 2026-05-06 14:21 | 53.31138 | -60.42523 | 161 ft | 14 kts | 54° |
| 2026-05-06 14:21 | 53.31199 | -60.42380 | 160 ft | 16 kts | 54° |
| 2026-05-06 14:21 | 53.31264 | -60.42217 | 159 ft | 19 kts | 57° |
| 2026-05-06 14:22 | 53.31343 | -60.42026 | 159 ft | 21 kts | 53° |
| 2026-05-06 14:22 | 53.31427 | -60.41825 | 160 ft | 21 kts | 55° |
| 2026-05-06 14:22 | 53.31505 | -60.41638 | 162 ft | 20 kts | 55° |
| 2026-05-06 14:22 | 53.31584 | -60.41448 | 162 ft | 18 kts | 59° |
| 2026-05-06 14:23 | 53.31586 | -60.41217 | 158 ft | 22 kts | 101° |
| 2026-05-06 14:23 | 53.31558 | -60.40964 | 154 ft | 20 kts | 100° |
| 2026-05-06 14:23 | 53.31507 | -60.40768 | 154 ft | 19 kts | 124° |
| 2026-05-06 14:23 | 53.31418 | -60.40589 | 153 ft | 21 kts | 133° |
| 2026-05-06 14:24 | 53.31317 | -60.40409 | 152 ft | 23 kts | 132° |
| 2026-05-06 14:24 | 53.31208 | -60.40214 | 147 ft | 23 kts | 133° |
| 2026-05-06 14:24 | 53.31118 | -60.40052 | 142 ft | 13 kts | 133° |
| 2026-05-06 14:24 | 53.31053 | -60.39938 | 140 ft | 15 kts | 134° |
| 2026-05-06 14:25 | 53.30992 | -60.39859 | 140 ft | 8 kts | 172° |
| 2026-05-06 14:25 | 53.30954 | -60.39884 | 142 ft | 5 kts | 215° |
| 2026-05-06 14:25 | 53.30936 | -60.39908 | 143 ft | 2 kts | 221° |
| 2026-05-06 14:25 | 53.30935 | -60.39910 | 143 ft | 0 kts | 221° |